createdAt,value
2023-05-09T00:00:03.252Z,15.25
2023-05-09T00:02:34.659Z,15.62
2023-05-09T00:05:03.945Z,15.54
2023-05-09T00:07:32.568Z,15.69
2023-05-09T00:10:01.367Z,15.18
2023-05-09T00:12:33.328Z,15.11
2023-05-09T00:15:03.749Z,15.24
2023-05-09T00:17:32.780Z,15.57
2023-05-09T00:20:02.076Z,15.26
2023-05-09T00:22:32.687Z,15.31
2023-05-09T00:25:00.948Z,15.01
2023-05-09T00:27:31.348Z,14.79
2023-05-09T00:30:01.479Z,14.79
2023-05-09T00:32:29.876Z,14.72
2023-05-09T00:34:58.198Z,14.64
2023-05-09T00:37:26.733Z,14.84
2023-05-09T00:39:54.996Z,15.10
2023-05-09T00:42:23.272Z,15.19
2023-05-09T00:44:51.524Z,15.28
2023-05-09T00:47:21.984Z,15.59
2023-05-09T00:49:50.811Z,15.48
2023-05-09T00:52:23.270Z,15.48
2023-05-09T00:54:52.708Z,15.46
2023-05-09T00:57:23.337Z,15.71
2023-05-09T00:59:51.630Z,15.74
2023-05-09T01:02:21.885Z,15.45
2023-05-09T01:04:52.778Z,15.47
2023-05-09T01:07:30.955Z,15.34
2023-05-09T01:10:05.007Z,15.42
2023-05-09T01:12:42.583Z,15.46
2023-05-09T01:15:16.886Z,15.39
2023-05-09T01:17:53.772Z,15.36
2023-05-09T01:20:28.662Z,15.45
2023-05-09T01:23:10.376Z,15.77
2023-05-09T01:25:54.440Z,15.37
2023-05-09T01:28:36.340Z,15.11
2023-05-09T01:31:07.298Z,14.99
2023-05-09T01:33:39.422Z,15.03
2023-05-09T01:36:13.572Z,15.16
2023-05-09T01:38:45.228Z,14.94
2023-05-09T01:41:17.802Z,14.91
2023-05-09T01:43:50.941Z,15.19
2023-05-09T01:46:23.711Z,15.24
2023-05-09T01:48:53.750Z,15.19
2023-05-09T01:51:22.938Z,14.79
2023-05-09T01:53:53.684Z,14.89
2023-05-09T01:56:23.360Z,15.05
2023-05-09T01:58:52.973Z,14.97
2023-05-09T02:01:23.349Z,14.88
2023-05-09T02:03:53.472Z,14.88
2023-05-09T02:06:24.102Z,14.64
2023-05-09T02:08:54.905Z,14.48
2023-05-09T02:11:23.483Z,14.35
2023-05-09T02:13:51.826Z,14.38
2023-05-09T02:16:21.077Z,14.29
2023-05-09T02:18:52.183Z,14.23
2023-05-09T02:21:20.595Z,14.15
2023-05-09T02:23:51.156Z,14.21
2023-05-09T02:26:19.997Z,14.23
2023-05-09T02:28:48.957Z,14.25
2023-05-09T02:31:20.116Z,14.21
2023-05-09T02:33:51.397Z,14.35
2023-05-09T02:36:20.830Z,14.18
2023-05-09T02:38:49.615Z,14.35
2023-05-09T02:41:18.257Z,14.33
2023-05-09T02:43:49.401Z,14.25
2023-05-09T02:46:19.838Z,14.56
2023-05-09T02:48:48.098Z,14.26
2023-05-09T02:51:18.065Z,14.25
2023-05-09T02:53:48.686Z,14.19
2023-05-09T02:56:17.157Z,14.36
2023-05-09T02:58:50.949Z,14.26
2023-05-09T03:01:19.347Z,14.36
2023-05-09T03:03:47.938Z,14.51
2023-05-09T03:06:18.501Z,14.62
2023-05-09T03:08:46.800Z,14.57
2023-05-09T03:11:15.175Z,14.60
2023-05-09T03:13:47.059Z,14.76
2023-05-09T03:16:15.912Z,14.55
2023-05-09T03:18:44.273Z,14.42
2023-05-09T03:21:12.692Z,14.35
2023-05-09T03:23:42.889Z,14.70
2023-05-09T03:26:11.199Z,14.28
2023-05-09T03:28:39.522Z,14.66
2023-05-09T03:31:08.654Z,14.58
2023-05-09T03:33:36.978Z,14.49
2023-05-09T03:36:06.077Z,14.66
2023-05-09T03:38:34.596Z,15.00
2023-05-09T03:41:04.979Z,14.90
2023-05-09T03:43:34.144Z,15.00
2023-05-09T03:46:02.553Z,14.89
2023-05-09T03:48:30.906Z,14.84
2023-05-09T03:50:59.381Z,14.93
2023-05-09T03:53:29.858Z,15.02
2023-05-09T03:55:58.486Z,14.98
2023-05-09T03:58:29.270Z,14.59
2023-05-09T04:00:59.902Z,14.72
2023-05-09T04:03:31.934Z,14.92
2023-05-09T04:06:00.693Z,15.06
2023-05-09T04:08:36.482Z,15.25
2023-05-09T04:11:06.181Z,15.16
2023-05-09T04:13:40.328Z,15.03
2023-05-09T04:16:21.718Z,15.19
2023-05-09T04:18:50.783Z,15.40
2023-05-09T04:21:19.128Z,15.28
2023-05-09T04:23:51.500Z,15.04
2023-05-09T04:26:24.748Z,15.11
2023-05-09T04:28:58.341Z,15.30
2023-05-09T04:31:27.401Z,15.50
2023-05-09T04:33:56.071Z,15.43
2023-05-09T04:36:24.344Z,15.11
2023-05-09T04:38:52.683Z,15.09
2023-05-09T04:41:25.706Z,15.45
2023-05-09T04:43:54.134Z,15.41
2023-05-09T04:46:25.816Z,15.12
2023-05-09T04:48:54.734Z,15.29
2023-05-09T04:51:23.122Z,15.48
2023-05-09T04:53:52.810Z,15.25
2023-05-09T04:56:24.776Z,15.35
2023-05-09T04:58:53.721Z,15.11
2023-05-09T05:01:26.645Z,14.85
2023-05-09T05:03:56.081Z,14.83
2023-05-09T05:06:24.427Z,14.65
2023-05-09T05:08:52.680Z,14.75
2023-05-09T05:11:21.825Z,14.72
2023-05-09T05:13:50.193Z,14.55
2023-05-09T05:16:18.570Z,14.49
2023-05-09T05:18:49.026Z,14.54
2023-05-09T05:21:20.959Z,14.47
2023-05-09T05:23:50.118Z,14.55
2023-05-09T05:26:18.439Z,14.57
2023-05-09T05:28:46.737Z,14.67
2023-05-09T05:31:15.654Z,15.31
2023-05-09T05:33:43.920Z,15.55
2023-05-09T05:36:13.635Z,15.53
2023-05-09T05:38:43.301Z,15.33
2023-05-09T05:41:11.949Z,15.47
2023-05-09T05:43:42.233Z,15.90
2023-05-09T05:46:11.456Z,16.26
2023-05-09T05:48:39.782Z,15.89
2023-05-09T05:51:08.077Z,16.05
2023-05-09T05:53:38.502Z,16.12
2023-05-09T05:56:07.412Z,16.03
2023-05-09T05:58:35.854Z,15.82
2023-05-09T06:01:05.005Z,16.32
2023-05-09T06:03:33.444Z,16.56
2023-05-09T06:06:05.646Z,16.74
2023-05-09T06:08:33.960Z,16.51
2023-05-09T06:11:03.630Z,15.99
2023-05-09T06:13:31.984Z,15.92
2023-05-09T06:16:18.666Z,16.09
2023-05-09T06:18:50.294Z,16.23
2023-05-09T06:21:22.353Z,16.28
2023-05-09T06:24:04.263Z,16.31
2023-05-09T06:26:38.083Z,16.18
2023-05-09T06:29:07.609Z,16.40
2023-05-09T06:31:38.656Z,16.38
2023-05-09T06:34:07.482Z,16.77
2023-05-09T06:36:35.904Z,16.88
2023-05-09T06:39:04.459Z,17.09
2023-05-09T06:41:32.752Z,17.61
2023-05-09T06:44:04.731Z,17.76
2023-05-09T06:46:33.020Z,17.30
2023-05-09T06:49:02.700Z,18.30
2023-05-09T06:51:31.014Z,19.59
2023-05-09T06:53:59.382Z,19.39
2023-05-09T06:56:27.811Z,19.79
2023-05-09T06:58:56.196Z,19.47
2023-05-09T07:01:26.055Z,18.27
2023-05-09T07:03:54.319Z,19.10
2023-05-09T07:06:22.594Z,19.69
2023-05-09T07:08:53.516Z,20.16
2023-05-09T07:11:24.260Z,18.78
2023-05-09T07:13:52.689Z,19.64
2023-05-09T07:16:23.074Z,19.52
2023-05-09T07:18:52.777Z,19.66
2023-05-09T07:21:21.044Z,19.72
2023-05-09T07:23:49.330Z,19.51
2023-05-09T07:26:17.618Z,19.29
2023-05-09T07:28:45.938Z,19.86
2023-05-09T07:31:14.276Z,18.92
2023-05-09T07:33:42.980Z,18.59
2023-05-09T07:36:14.741Z,19.46
2023-05-09T07:38:43.055Z,19.49
2023-05-09T07:41:11.464Z,20.09
2023-05-09T07:43:39.841Z,20.15
2023-05-09T07:46:08.363Z,19.71
2023-05-09T07:48:36.889Z,19.35
2023-05-09T07:51:05.516Z,19.48
2023-05-09T07:53:35.221Z,19.34
2023-05-09T07:56:03.623Z,19.03
2023-05-09T07:58:31.958Z,18.79
2023-05-09T08:01:00.334Z,18.95
2023-05-09T08:03:28.994Z,18.76
2023-05-09T08:05:57.484Z,19.28
2023-05-09T08:08:26.088Z,18.88
2023-05-09T08:10:56.878Z,19.29
2023-05-09T08:13:25.667Z,18.82
2023-05-09T08:15:54.155Z,18.90
2023-05-09T08:18:22.427Z,19.31
2023-05-09T08:20:52.835Z,19.36
2023-05-09T08:23:21.174Z,19.30
2023-05-09T08:25:55.446Z,20.27
2023-05-09T08:28:24.465Z,20.15
2023-05-09T08:30:52.868Z,20.75
2023-05-09T08:33:21.503Z,21.23
2023-05-09T08:35:52.010Z,20.51
2023-05-09T08:38:20.557Z,19.77
2023-05-09T08:40:52.037Z,19.93
2023-05-09T08:43:24.397Z,20.09
2023-05-09T08:45:59.022Z,19.56
2023-05-09T08:48:29.266Z,20.45
2023-05-09T08:50:57.950Z,20.94
2023-05-09T08:53:26.727Z,20.74
2023-05-09T08:55:55.604Z,21.04
2023-05-09T08:58:27.571Z,20.86
2023-05-09T09:00:56.563Z,19.93
2023-05-09T09:03:25.510Z,20.25
2023-05-09T09:05:55.083Z,20.81
2023-05-09T09:08:24.257Z,19.99
2023-05-09T09:10:53.448Z,19.66
2023-05-09T09:13:25.029Z,19.06
2023-05-09T09:15:58.063Z,19.43
2023-05-09T09:18:30.928Z,19.87
2023-05-09T09:21:06.708Z,20.71
2023-05-09T09:23:35.656Z,20.93
2023-05-09T09:26:05.072Z,20.72
2023-05-09T09:28:35.438Z,20.17
2023-05-09T09:31:20.610Z,20.06
2023-05-09T09:33:49.900Z,20.20
2023-05-09T09:36:28.857Z,20.53
2023-05-09T09:39:01.346Z,21.01
2023-05-09T09:41:33.843Z,21.00
2023-05-09T09:44:09.340Z,20.70
2023-05-09T09:46:44.902Z,21.18
2023-05-09T09:49:17.125Z,21.59
2023-05-09T09:51:45.646Z,21.98
2023-05-09T09:54:14.214Z,22.16
2023-05-09T09:56:47.346Z,22.23
2023-05-09T09:59:17.343Z,22.57
2023-05-09T10:02:08.350Z,21.44
2023-05-09T10:04:38.730Z,22.74
2023-05-09T10:07:12.854Z,22.43
2023-05-09T10:09:43.906Z,21.58
2023-05-09T10:12:14.660Z,22.31
2023-05-09T10:14:44.176Z,21.80
2023-05-09T10:17:16.006Z,22.44
2023-05-09T10:19:47.232Z,22.28
2023-05-09T10:22:18.109Z,21.73
2023-05-09T10:24:52.606Z,22.06
2023-05-09T10:27:27.370Z,22.58
2023-05-09T10:30:02.943Z,22.39
2023-05-09T10:32:39.643Z,22.33
2023-05-09T10:35:13.948Z,23.27
2023-05-09T10:37:42.617Z,23.31
2023-05-09T10:40:14.993Z,23.24
2023-05-09T10:42:44.446Z,22.95
2023-05-09T10:45:13.662Z,23.56
2023-05-09T10:47:45.538Z,24.10
2023-05-09T10:50:14.611Z,23.71
2023-05-09T10:53:11.031Z,22.34
2023-05-09T10:55:40.909Z,21.99
2023-05-09T10:58:23.706Z,23.17
2023-05-09T11:00:55.269Z,22.85
2023-05-09T11:03:27.460Z,22.85
2023-05-09T11:06:00.113Z,23.22
2023-05-09T11:08:29.745Z,23.39
2023-05-09T11:11:00.476Z,23.15
2023-05-09T11:13:33.580Z,23.41
2023-05-09T11:16:14.634Z,23.67
2023-05-09T11:18:54.524Z,22.99
2023-05-09T11:21:23.003Z,23.82
2023-05-09T11:23:54.441Z,24.92
2023-05-09T11:26:24.488Z,23.76
2023-05-09T11:28:57.473Z,23.88
2023-05-09T11:31:26.252Z,22.99
2023-05-09T11:34:04.738Z,23.63
2023-05-09T11:36:35.612Z,24.19
2023-05-09T11:39:08.735Z,23.94
2023-05-09T11:41:41.661Z,23.92
2023-05-09T11:44:15.488Z,23.98
2023-05-09T11:46:43.978Z,23.66
2023-05-09T11:49:14.177Z,22.84
2023-05-09T11:51:42.684Z,23.02
2023-05-09T11:54:13.636Z,23.40
2023-05-09T11:56:42.998Z,24.09
2023-05-09T11:59:14.542Z,24.35
2023-05-09T12:01:42.944Z,23.53
2023-05-09T12:04:11.660Z,23.04
2023-05-09T12:06:41.480Z,23.51
2023-05-09T12:09:10.532Z,22.65
2023-05-09T12:11:39.549Z,24.11
2023-05-09T12:14:07.862Z,23.63
2023-05-09T12:16:36.304Z,23.63
2023-05-09T12:19:05.406Z,24.24
2023-05-09T12:21:33.789Z,23.61
2023-05-09T12:24:06.361Z,23.73
2023-05-09T12:26:34.897Z,23.34
2023-05-09T12:29:03.518Z,24.06
2023-05-09T12:31:32.244Z,24.36
2023-05-09T12:34:00.860Z,23.55
2023-05-09T12:36:29.194Z,23.95
2023-05-09T12:38:57.768Z,22.94
2023-05-09T12:41:39.286Z,23.77
2023-05-09T12:44:10.623Z,24.07
2023-05-09T12:46:39.076Z,23.37
2023-05-09T12:49:20.991Z,23.32
2023-05-09T12:51:50.347Z,23.23
2023-05-09T12:54:21.609Z,24.13
2023-05-09T12:56:53.205Z,23.84
2023-05-09T12:59:22.537Z,24.27
2023-05-09T13:01:56.251Z,24.66
2023-05-09T13:04:28.377Z,23.93
2023-05-09T13:06:59.824Z,23.63
2023-05-09T13:09:28.581Z,24.08
2023-05-09T13:11:58.353Z,24.38
2023-05-09T13:14:27.636Z,24.53
2023-05-09T13:16:55.999Z,24.41
2023-05-09T13:19:24.392Z,24.27
2023-05-09T13:21:53.817Z,24.19
2023-05-09T13:24:22.123Z,24.46
2023-05-09T13:26:50.536Z,24.42
2023-05-09T13:29:20.198Z,24.70
2023-05-09T13:31:48.487Z,24.74
2023-05-09T13:34:16.779Z,24.17
2023-05-09T13:36:45.159Z,24.11
2023-05-09T13:39:13.426Z,25.11
2023-05-09T13:41:41.702Z,24.65
2023-05-09T13:44:12.538Z,24.66
2023-05-09T13:46:45.786Z,24.73
2023-05-09T13:49:16.416Z,24.71
2023-05-09T13:51:45.257Z,24.97
2023-05-09T13:54:14.714Z,25.30
2023-05-09T13:56:43.590Z,25.85
2023-05-09T13:59:12.118Z,25.29
2023-05-09T14:01:40.489Z,24.95
2023-05-09T14:04:10.521Z,24.56
2023-05-09T14:06:39.349Z,25.20
2023-05-09T14:09:09.060Z,25.07
2023-05-09T14:11:37.383Z,24.97
2023-05-09T14:14:05.798Z,24.80
2023-05-09T14:16:34.256Z,25.26
2023-05-09T14:19:02.645Z,25.54
2023-05-09T14:21:32.391Z,24.86
2023-05-09T14:24:00.656Z,25.16
2023-05-09T14:26:29.105Z,25.56
2023-05-09T14:28:57.441Z,24.78
2023-05-09T14:31:25.848Z,24.32
2023-05-09T14:33:54.122Z,23.87
2023-05-09T14:36:22.539Z,23.73
2023-05-09T14:38:52.198Z,24.14
2023-05-09T14:41:22.197Z,24.02
2023-05-09T14:43:53.136Z,24.61
2023-05-09T14:46:21.593Z,24.15
2023-05-09T14:48:49.893Z,23.46
2023-05-09T14:51:18.254Z,23.21
2023-05-09T14:53:47.179Z,22.06
2023-05-09T14:56:17.034Z,22.45
2023-05-09T14:58:45.349Z,22.25
2023-05-09T15:01:13.971Z,21.95
2023-05-09T15:03:42.410Z,21.86
2023-05-09T15:06:10.772Z,21.35
2023-05-09T15:08:39.247Z,21.03
2023-05-09T15:11:07.912Z,20.89
2023-05-09T15:13:38.195Z,20.83
2023-05-09T15:16:06.885Z,20.62
2023-05-09T15:18:35.303Z,20.68
2023-05-09T15:21:03.770Z,19.70
2023-05-09T15:23:32.087Z,19.47
2023-05-09T15:26:00.420Z,19.37
2023-05-09T15:28:28.698Z,18.80
2023-05-09T15:30:59.906Z,18.85
2023-05-09T15:33:28.448Z,19.13
2023-05-09T15:35:58.699Z,19.05
2023-05-09T15:38:27.168Z,19.02
2023-05-09T15:40:55.437Z,18.88
2023-05-09T15:43:23.769Z,19.41
2023-05-09T15:45:52.226Z,19.46
2023-05-09T15:48:23.020Z,20.24
2023-05-09T15:50:53.850Z,19.27
2023-05-09T15:53:23.108Z,19.78
2023-05-09T15:55:51.808Z,19.96
2023-05-09T15:58:22.506Z,19.75
2023-05-09T16:00:51.154Z,20.18
2023-05-09T16:03:19.821Z,20.55
2023-05-09T16:05:49.807Z,20.07
2023-05-09T16:08:20.399Z,20.51
2023-05-09T16:10:49.163Z,20.11
2023-05-09T16:13:20.522Z,20.27
2023-05-09T16:15:50.044Z,20.60
2023-05-09T16:18:18.699Z,20.30
2023-05-09T16:20:51.110Z,20.26
2023-05-09T16:23:20.887Z,20.24
2023-05-09T16:25:51.233Z,20.03
2023-05-09T16:28:23.281Z,20.37
2023-05-09T16:30:52.047Z,20.32
2023-05-09T16:33:20.760Z,20.22
2023-05-09T16:35:52.927Z,20.15
2023-05-09T16:38:21.301Z,20.04
2023-05-09T16:40:50.962Z,20.10
2023-05-09T16:43:20.024Z,19.71
2023-05-09T16:45:48.861Z,19.67
2023-05-09T16:48:19.925Z,19.66
2023-05-09T16:50:53.470Z,19.75
2023-05-09T16:53:24.472Z,19.66
2023-05-09T16:55:54.338Z,19.67
2023-05-09T16:58:22.675Z,19.67
2023-05-09T17:00:51.483Z,19.36
2023-05-09T17:03:22.289Z,19.37
2023-05-09T17:05:51.253Z,19.41
2023-05-09T17:08:19.779Z,19.24
2023-05-09T17:10:49.486Z,19.14
2023-05-09T17:13:17.799Z,19.02
2023-05-09T17:15:46.334Z,19.24
2023-05-09T17:18:22.036Z,18.97
2023-05-09T17:20:57.903Z,18.77
2023-05-09T17:23:26.306Z,18.50
2023-05-09T17:25:56.021Z,18.64
2023-05-09T17:28:27.389Z,18.49
2023-05-09T17:30:55.999Z,18.25
2023-05-09T17:33:29.349Z,18.19
2023-05-09T17:35:58.404Z,18.04
2023-05-09T17:38:26.813Z,17.92
2023-05-09T17:40:56.445Z,18.11
2023-05-09T17:43:24.878Z,18.05
2023-05-09T17:45:53.399Z,18.04
2023-05-09T17:48:21.786Z,18.06
2023-05-09T17:50:50.267Z,17.76
2023-05-09T17:53:20.710Z,17.90
2023-05-09T17:55:49.061Z,17.60
2023-05-09T17:58:23.152Z,17.74
2023-05-09T18:00:53.704Z,17.70
2023-05-09T18:03:24.571Z,17.85
2023-05-09T18:05:52.928Z,17.46
2023-05-09T18:08:21.306Z,17.36
2023-05-09T18:10:51.800Z,17.70
2023-05-09T18:13:22.328Z,17.42
2023-05-09T18:15:50.732Z,17.52
2023-05-09T18:18:19.184Z,17.34
2023-05-09T18:20:47.741Z,17.45
2023-05-09T18:23:16.200Z,17.57
2023-05-09T18:25:44.541Z,17.22
2023-05-09T18:28:15.353Z,17.65
2023-05-09T18:30:45.046Z,17.70
2023-05-09T18:33:13.548Z,17.50
2023-05-09T18:35:41.944Z,17.46
2023-05-09T18:38:10.240Z,17.23
2023-05-09T18:40:38.618Z,17.21
2023-05-09T18:43:07.935Z,16.99
2023-05-09T18:45:36.278Z,17.04
2023-05-09T18:48:06.635Z,16.84
2023-05-09T18:50:35.094Z,16.98
2023-05-09T18:53:05.570Z,17.06
2023-05-09T18:55:33.961Z,16.83
2023-05-09T18:58:02.307Z,17.01
2023-05-09T19:00:30.867Z,16.64
2023-05-09T19:02:59.316Z,16.88
2023-05-09T19:05:29.195Z,16.66
2023-05-09T19:07:57.659Z,16.67
2023-05-09T19:10:25.943Z,16.63
2023-05-09T19:12:55.959Z,16.83
2023-05-09T19:15:24.302Z,17.08
2023-05-09T19:17:52.697Z,16.72
2023-05-09T19:20:23.918Z,16.80
2023-05-09T19:22:53.900Z,16.68
2023-05-09T19:25:22.781Z,16.89
2023-05-09T19:27:53.690Z,16.84
2023-05-09T19:30:24.372Z,16.90
2023-05-09T19:32:54.141Z,16.94
2023-05-09T19:35:22.598Z,16.98
2023-05-09T19:37:51.273Z,16.62
2023-05-09T19:40:21.551Z,16.83
2023-05-09T19:42:50.019Z,16.94
2023-05-09T19:45:23.551Z,16.83
2023-05-09T19:47:55.152Z,16.73
2023-05-09T19:50:23.783Z,16.67
2023-05-09T19:52:52.110Z,16.96
2023-05-09T19:55:21.854Z,16.96
2023-05-09T19:57:50.278Z,16.77
2023-05-09T20:00:19.912Z,16.73
2023-05-09T20:02:48.408Z,16.63
2023-05-09T20:05:16.795Z,16.40
2023-05-09T20:07:45.217Z,16.76
2023-05-09T20:10:16.306Z,16.81
2023-05-09T20:12:46.430Z,16.86
2023-05-09T20:15:17.923Z,16.78
2023-05-09T20:17:46.432Z,16.95
2023-05-09T20:20:15.352Z,17.03
2023-05-09T20:22:43.901Z,16.95
2023-05-09T20:25:16.298Z,16.94
2023-05-09T20:27:45.980Z,16.95
2023-05-09T20:30:15.913Z,16.70
2023-05-09T20:32:44.873Z,16.58
2023-05-09T20:35:13.266Z,16.40
2023-05-09T20:37:41.619Z,16.81
2023-05-09T20:40:10.686Z,16.65
2023-05-09T20:42:39.271Z,16.67
2023-05-09T20:45:11.749Z,16.66
2023-05-09T20:47:40.607Z,16.47
2023-05-09T20:50:11.386Z,16.25
2023-05-09T20:52:39.724Z,16.35
2023-05-09T20:55:08.577Z,16.34
2023-05-09T20:57:36.921Z,16.41
2023-05-09T21:00:07.518Z,16.65
2023-05-09T21:02:37.398Z,16.67
2023-05-09T21:05:06.618Z,16.43
2023-05-09T21:07:35.452Z,16.55
2023-05-09T21:10:03.809Z,16.55
2023-05-09T21:12:32.739Z,16.52
2023-05-09T21:15:02.957Z,16.61
2023-05-09T21:17:31.362Z,16.46
2023-05-09T21:20:01.130Z,16.46
2023-05-09T21:22:29.620Z,16.39
2023-05-09T21:24:57.888Z,16.53
2023-05-09T21:27:30.934Z,16.69
2023-05-09T21:29:59.395Z,16.34
2023-05-09T21:32:28.507Z,16.49
2023-05-09T21:34:56.928Z,16.63
2023-05-09T21:37:26.862Z,16.65
2023-05-09T21:39:55.209Z,16.67
2023-05-09T21:42:23.921Z,16.65
2023-05-09T21:44:52.240Z,16.66
2023-05-09T21:47:20.718Z,16.66
2023-05-09T21:49:49.143Z,16.39
2023-05-09T21:52:18.449Z,16.44
2023-05-09T21:54:48.151Z,16.64
2023-05-09T21:57:18.529Z,16.63
2023-05-09T22:02:38.721Z,16.31
2023-05-09T22:05:10.365Z,16.33
2023-05-09T22:07:38.667Z,16.46
2023-05-09T22:10:08.074Z,16.47
2023-05-09T22:12:36.409Z,16.54
2023-05-09T22:15:05.592Z,16.24
2023-05-09T22:17:37.711Z,16.34
2023-05-09T22:20:07.420Z,15.97
2023-05-09T22:22:35.824Z,15.95
2023-05-09T22:25:04.756Z,15.75
2023-05-09T22:27:33.101Z,15.78
2023-05-09T22:30:01.553Z,15.65
2023-05-09T22:32:29.986Z,15.69
2023-05-09T22:35:02.276Z,15.89
2023-05-09T22:37:30.862Z,16.08
2023-05-09T22:40:01.482Z,15.98
2023-05-09T22:42:30.163Z,15.80
2023-05-09T22:44:59.010Z,15.91
2023-05-09T22:47:27.379Z,16.00
2023-05-09T22:49:56.020Z,15.70
2023-05-09T22:52:27.787Z,15.58
2023-05-09T22:54:56.106Z,15.65
2023-05-09T22:57:24.343Z,15.50
2023-05-09T22:59:53.385Z,15.46
2023-05-09T23:02:24.079Z,15.71
2023-05-09T23:04:52.363Z,15.78
2023-05-09T23:07:23.115Z,15.58
2023-05-09T23:09:52.899Z,15.65
2023-05-09T23:12:23.381Z,15.16
2023-05-09T23:14:53.917Z,15.36
2023-05-09T23:17:23.041Z,15.40
2023-05-09T23:19:51.361Z,15.19
2023-05-09T23:22:19.717Z,14.99
2023-05-09T23:24:48.041Z,15.05
2023-05-09T23:27:17.760Z,15.00
2023-05-09T23:29:46.043Z,14.88
2023-05-09T23:32:14.262Z,14.87
2023-05-09T23:34:42.495Z,14.81
2023-05-09T23:37:11.810Z,14.92
2023-05-09T23:39:40.033Z,14.83
2023-05-09T23:42:08.805Z,14.55
2023-05-09T23:44:38.379Z,14.47
2023-05-09T23:47:06.841Z,14.48
2023-05-09T23:49:35.336Z,14.76
2023-05-09T23:52:03.720Z,14.53
2023-05-09T23:54:32.109Z,14.41
2023-05-09T23:57:00.374Z,14.30
2023-05-09T23:59:30.781Z,14.18
